Aviation Digital Data Service (ADDS)

Output produced by METARs form (2056 UTC 20 August 2019)
found at http://www.aviationweather.gov/metar/data/
 
METAR text: OEDR 202000Z VRB02KT CAVOK 34/21 Q1002 NOSIG
Conditions at: OEDR (DHAHRAN INTL (MI, SA) observed 2000 UTC 20 August 2019
Temperature: 34.0°C (93°F)
Dewpoint: 21.0°C (70°F) [RH = 47%]
Pressure (altimeter): 29.59 inches Hg (1002.0 mb)
Winds: variable direction winds at 2 MPH (2 knots; 1.0 m/s)
Visibility: 6 or more miles (10+ km)
Ceiling: ceiling and visibility are OK
Clouds: unknown
Weather: no significant weather observed at this time

METAR text: OEDR 201900Z 09004KT CAVOK 34/22 Q1002 NOSIG
Conditions at: OEDR (DHAHRAN INTL (MI, SA) observed 1900 UTC 20 August 2019
Temperature: 34.0°C (93°F)
Dewpoint: 22.0°C (72°F) [RH = 50%]
Pressure (altimeter): 29.59 inches Hg (1002.0 mb)
Winds: from the E (90 degrees) at 5 MPH (4 knots; 2.1 m/s)
Visibility: 6 or more miles (10+ km)
Ceiling: ceiling and visibility are OK
Clouds: unknown
Weather: no significant weather observed at this time

METAR text: OEDR 201800Z 09007KT CAVOK 35/21 Q1003 NOSIG
Conditions at: OEDR (DHAHRAN INTL (MI, SA) observed 1800 UTC 20 August 2019
Temperature: 35.0°C (95°F)
Dewpoint: 21.0°C (70°F) [RH = 44%]
Pressure (altimeter): 29.62 inches Hg (1003.0 mb)
Winds: from the E (90 degrees) at 8 MPH (7 knots; 3.6 m/s)
Visibility: 6 or more miles (10+ km)
Ceiling: ceiling and visibility are OK
Clouds: unknown
Weather: no significant weather observed at this time

METAR text: OEDR 201700Z 08008KT CAVOK 35/21 Q1002 NOSIG
Conditions at: OEDR (DHAHRAN INTL (MI, SA) observed 1700 UTC 20 August 2019
Temperature: 35.0°C (95°F)
Dewpoint: 21.0°C (70°F) [RH = 44%]
Pressure (altimeter): 29.59 inches Hg (1002.0 mb)
Winds: from the E (80 degrees) at 9 MPH (8 knots; 4.1 m/s)
Visibility: 6 or more miles (10+ km)
Ceiling: ceiling and visibility are OK
Clouds: unknown
Weather: no significant weather observed at this time

METAR text: OEDR 201600Z 06007KT CAVOK 35/25 Q1002 NOSIG
Conditions at: OEDR (DHAHRAN INTL (MI, SA) observed 1600 UTC 20 August 2019
Temperature: 35.0°C (95°F)
Dewpoint: 25.0°C (77°F) [RH = 56%]
Pressure (altimeter): 29.59 inches Hg (1002.0 mb)
Winds: from the ENE (60 degrees) at 8 MPH (7 knots; 3.6 m/s)
Visibility: 6 or more miles (10+ km)
Ceiling: ceiling and visibility are OK
Clouds: unknown
Weather: no significant weather observed at this time

METAR text: OEDR 201500Z 08010KT CAVOK 37/20 Q1002 NOSIG
Conditions at: OEDR (DHAHRAN INTL (MI, SA) observed 1500 UTC 20 August 2019
Temperature: 37.0°C (99°F)
Dewpoint: 20.0°C (68°F) [RH = 37%]
Pressure (altimeter): 29.59 inches Hg (1002.0 mb)
Winds: from the E (80 degrees) at 12 MPH (10 knots; 5.1 m/s)
Visibility: 6 or more miles (10+ km)
Ceiling: ceiling and visibility are OK
Clouds: unknown
Weather: no significant weather observed at this time

METAR text: OEDR 201400Z 07007KT CAVOK 39/20 Q1001 NOSIG
Conditions at: OEDR (DHAHRAN INTL (MI, SA) observed 1400 UTC 20 August 2019
Temperature: 39.0°C (102°F)
Dewpoint: 20.0°C (68°F) [RH = 33%]
Pressure (altimeter): 29.56 inches Hg (1001.0 mb)
Winds: from the ENE (70 degrees) at 8 MPH (7 knots; 3.6 m/s)
Visibility: 6 or more miles (10+ km)
Ceiling: ceiling and visibility are OK
Clouds: unknown
Weather: no significant weather observed at this time

METAR text: OEDR 201300Z 08008KT CAVOK 39/20 Q1001 NOSIG
Conditions at: OEDR (DHAHRAN INTL (MI, SA) observed 1300 UTC 20 August 2019
Temperature: 39.0°C (102°F)
Dewpoint: 20.0°C (68°F) [RH = 33%]
Pressure (altimeter): 29.56 inches Hg (1001.0 mb)
Winds: from the E (80 degrees) at 9 MPH (8 knots; 4.1 m/s)
Visibility: 6 or more miles (10+ km)
Ceiling: ceiling and visibility are OK
Clouds: unknown
Weather: no significant weather observed at this time

METAR text: OEDR 201200Z 08010KT CAVOK 41/19 Q1002 NOSIG
Conditions at: OEDR (DHAHRAN INTL (MI, SA) observed 1200 UTC 20 August 2019
Temperature: 41.0°C (106°F)
Dewpoint: 19.0°C (66°F) [RH = 28%]
Pressure (altimeter): 29.59 inches Hg (1002.0 mb)
Winds: from the E (80 degrees) at 12 MPH (10 knots; 5.1 m/s)
Visibility: 6 or more miles (10+ km)
Ceiling: ceiling and visibility are OK
Clouds: unknown
Weather: no significant weather observed at this time

METAR text: OEDR 201100Z 07012KT CAVOK 42/15 Q1002 NOSIG
Conditions at: OEDR (DHAHRAN INTL (MI, SA) observed 1100 UTC 20 August 2019
Temperature: 42.0°C (108°F)
Dewpoint: 15.0°C (59°F) [RH = 21%]
Pressure (altimeter): 29.59 inches Hg (1002.0 mb)
Winds: from the ENE (70 degrees) at 14 MPH (12 knots; 6.2 m/s)
Visibility: 6 or more miles (10+ km)
Ceiling: ceiling and visibility are OK
Clouds: unknown
Weather: no significant weather observed at this time

METAR text: OEDR 201000Z 11009KT CAVOK 43/15 Q1002 NOSIG
Conditions at: OEDR (DHAHRAN INTL (MI, SA) observed 1000 UTC 20 August 2019
Temperature: 43.0°C (109°F)
Dewpoint: 15.0°C (59°F) [RH = 20%]
Pressure (altimeter): 29.59 inches Hg (1002.0 mb)
Winds: from the ESE (110 degrees) at 10 MPH (9 knots; 4.6 m/s)
Visibility: 6 or more miles (10+ km)
Ceiling: ceiling and visibility are OK
Clouds: unknown
Weather: no significant weather observed at this time

METAR text: OEDR 200900Z 10008KT CAVOK 42/19 Q1003 NOSIG
Conditions at: OEDR (DHAHRAN INTL (MI, SA) observed 0900 UTC 20 August 2019
Temperature: 42.0°C (108°F)
Dewpoint: 19.0°C (66°F) [RH = 27%]
Pressure (altimeter): 29.62 inches Hg (1003.0 mb)
Winds: from the E (100 degrees) at 9 MPH (8 knots; 4.1 m/s)
Visibility: 6 or more miles (10+ km)
Ceiling: ceiling and visibility are OK
Clouds: unknown
Weather: no significant weather observed at this time

METAR text: OEDR 200800Z VRB07KT CAVOK 41/17 Q1003 NOSIG
Conditions at: OEDR (DHAHRAN INTL (MI, SA) observed 0800 UTC 20 August 2019
Temperature: 41.0°C (106°F)
Dewpoint: 17.0°C (63°F) [RH = 25%]
Pressure (altimeter): 29.62 inches Hg (1003.0 mb)
Winds: variable direction winds at 8 MPH (7 knots; 3.6 m/s)
Visibility: 6 or more miles (10+ km)
Ceiling: ceiling and visibility are OK
Clouds: unknown
Weather: no significant weather observed at this time

METAR text: OEDR 200700Z VRB03KT CAVOK 40/15 Q1004 NOSIG
Conditions at: OEDR (DHAHRAN INTL (MI, SA) observed 0700 UTC 20 August 2019
Temperature: 40.0°C (104°F)
Dewpoint: 15.0°C (59°F) [RH = 23%]
Pressure (altimeter): 29.65 inches Hg (1004.0 mb)
Winds: variable direction winds at 3 MPH (3 knots; 1.5 m/s)
Visibility: 6 or more miles (10+ km)
Ceiling: ceiling and visibility are OK
Clouds: unknown
Weather: no significant weather observed at this time

METAR text: OEDR 200600Z VRB04KT 7000 NSC 38/15 Q1004 NOSIG
Conditions at: OEDR (DHAHRAN INTL (MI, SA) observed 0600 UTC 20 August 2019
Temperature: 38.0°C (100°F)
Dewpoint: 15.0°C (59°F) [RH = 26%]
Pressure (altimeter): 29.65 inches Hg (1004.0 mb)
Winds: variable direction winds at 5 MPH (4 knots; 2.1 m/s)
Visibility: 4 miles ( 7 km)
Ceiling: at least 12,000 feet AGL
Clouds: sky clear below 12,000 feet AGL
Weather: no significant weather observed at this time

METAR text: OEDR 200500Z 26004KT 5000 HZ SKC 34/19 Q1004 NOSIG
Conditions at: OEDR (DHAHRAN INTL (MI, SA) observed 0500 UTC 20 August 2019
Temperature: 34.0°C (93°F)
Dewpoint: 19.0°C (66°F) [RH = 41%]
Pressure (altimeter): 29.65 inches Hg (1004.0 mb)
Winds: from the W (260 degrees) at 5 MPH (4 knots; 2.1 m/s)
Visibility: 3 miles ( 5 km)
Ceiling: at least 12,000 feet AGL
Clouds: clear skies
Weather: HZ  (haze)

METAR text: OEDR 200400Z 28004KT 6000 SKC 32/13 Q1003 NOSIG
Conditions at: OEDR (DHAHRAN INTL (MI, SA) observed 0400 UTC 20 August 2019
Temperature: 32.0°C (90°F)
Dewpoint: 13.0°C (55°F) [RH = 32%]
Pressure (altimeter): 29.62 inches Hg (1003.0 mb)
Winds: from the W (280 degrees) at 5 MPH (4 knots; 2.1 m/s)
Visibility: 4 miles ( 6 km)
Ceiling: at least 12,000 feet AGL
Clouds: clear skies
Weather: no significant weather observed at this time

METAR text: OEDR 200300Z VRB02KT 6000 SKC 30/13 Q1003 NOSIG
Conditions at: OEDR (DHAHRAN INTL (MI, SA) observed 0300 UTC 20 August 2019
Temperature: 30.0°C (86°F)
Dewpoint: 13.0°C (55°F) [RH = 35%]
Pressure (altimeter): 29.62 inches Hg (1003.0 mb)
Winds: variable direction winds at 2 MPH (2 knots; 1.0 m/s)
Visibility: 4 miles ( 6 km)
Ceiling: at least 12,000 feet AGL
Clouds: clear skies
Weather: no significant weather observed at this time

METAR text: OEDR 200200Z 30004KT CAVOK 29/15 Q1002 NOSIG
Conditions at: OEDR (DHAHRAN INTL (MI, SA) observed 0200 UTC 20 August 2019
Temperature: 29.0°C (84°F)
Dewpoint: 15.0°C (59°F) [RH = 43%]
Pressure (altimeter): 29.59 inches Hg (1002.0 mb)
Winds: from the WNW (300 degrees) at 5 MPH (4 knots; 2.1 m/s)
Visibility: 6 or more miles (10+ km)
Ceiling: ceiling and visibility are OK
Clouds: unknown
Weather: no significant weather observed at this time

METAR text: OEDR 200100Z 30004KT CAVOK 29/17 Q1002 NOSIG
Conditions at: OEDR (DHAHRAN INTL (MI, SA) observed 0100 UTC 20 August 2019
Temperature: 29.0°C (84°F)
Dewpoint: 17.0°C (63°F) [RH = 48%]
Pressure (altimeter): 29.59 inches Hg (1002.0 mb)
Winds: from the WNW (300 degrees) at 5 MPH (4 knots; 2.1 m/s)
Visibility: 6 or more miles (10+ km)
Ceiling: ceiling and visibility are OK
Clouds: unknown
Weather: no significant weather observed at this time

METAR text: OEDR 200000Z VRB04KT CAVOK 29/16 Q1001 NOSIG
Conditions at: OEDR (DHAHRAN INTL (MI, SA) observed 0000 UTC 20 August 2019
Temperature: 29.0°C (84°F)
Dewpoint: 16.0°C (61°F) [RH = 45%]
Pressure (altimeter): 29.56 inches Hg (1001.0 mb)
Winds: variable direction winds at 5 MPH (4 knots; 2.1 m/s)
Visibility: 6 or more miles (10+ km)
Ceiling: ceiling and visibility are OK
Clouds: unknown
Weather: no significant weather observed at this time

METAR text: OEDR 192300Z 29006KT CAVOK 30/17 Q1001 NOSIG
Conditions at: OEDR (DHAHRAN INTL (MI, SA) observed 2300 UTC 19 August 2019
Temperature: 30.0°C (86°F)
Dewpoint: 17.0°C (63°F) [RH = 46%]
Pressure (altimeter): 29.56 inches Hg (1001.0 mb)
Winds: from the WNW (290 degrees) at 7 MPH (6 knots; 3.1 m/s)
Visibility: 6 or more miles (10+ km)
Ceiling: ceiling and visibility are OK
Clouds: unknown
Weather: no significant weather observed at this time

METAR text: OEDR 192200Z 27004KT CAVOK 30/17 Q1002 NOSIG
Conditions at: OEDR (DHAHRAN INTL (MI, SA) observed 2200 UTC 19 August 2019
Temperature: 30.0°C (86°F)
Dewpoint: 17.0°C (63°F) [RH = 46%]
Pressure (altimeter): 29.59 inches Hg (1002.0 mb)
Winds: from the W (270 degrees) at 5 MPH (4 knots; 2.1 m/s)
Visibility: 6 or more miles (10+ km)
Ceiling: ceiling and visibility are OK
Clouds: unknown
Weather: no significant weather observed at this time

METAR text: OEDR 192100Z 23004KT CAVOK 30/18 Q1002 NOSIG
Conditions at: OEDR (DHAHRAN INTL (MI, SA) observed 2100 UTC 19 August 2019
Temperature: 30.0°C (86°F)
Dewpoint: 18.0°C (64°F) [RH = 49%]
Pressure (altimeter): 29.59 inches Hg (1002.0 mb)
Winds: from the SW (230 degrees) at 5 MPH (4 knots; 2.1 m/s)
Visibility: 6 or more miles (10+ km)
Ceiling: ceiling and visibility are OK
Clouds: unknown
Weather: no significant weather observed at this time

METAR text: OEDR 192000Z 05004KT CAVOK 32/19 Q1002 NOSIG
Conditions at: OEDR (DHAHRAN INTL (MI, SA) observed 2000 UTC 19 August 2019
Temperature: 32.0°C (90°F)
Dewpoint: 19.0°C (66°F) [RH = 46%]
Pressure (altimeter): 29.59 inches Hg (1002.0 mb)
Winds: from the NE (50 degrees) at 5 MPH (4 knots; 2.1 m/s)
Visibility: 6 or more miles (10+ km)
Ceiling: ceiling and visibility are OK
Clouds: unknown
Weather: no significant weather observed at this time

METAR text: OEDR 191900Z 06004KT CAVOK 33/20 Q1002 NOSIG
Conditions at: OEDR (DHAHRAN INTL (MI, SA) observed 1900 UTC 19 August 2019
Temperature: 33.0°C (91°F)
Dewpoint: 20.0°C (68°F) [RH = 46%]
Pressure (altimeter): 29.59 inches Hg (1002.0 mb)
Winds: from the ENE (60 degrees) at 5 MPH (4 knots; 2.1 m/s)
Visibility: 6 or more miles (10+ km)
Ceiling: ceiling and visibility are OK
Clouds: unknown
Weather: no significant weather observed at this time

METAR text: OEDR 191800Z 06007KT CAVOK 34/19 Q1003 NOSIG
Conditions at: OEDR (DHAHRAN INTL (MI, SA) observed 1800 UTC 19 August 2019
Temperature: 34.0°C (93°F)
Dewpoint: 19.0°C (66°F) [RH = 41%]
Pressure (altimeter): 29.62 inches Hg (1003.0 mb)
Winds: from the ENE (60 degrees) at 8 MPH (7 knots; 3.6 m/s)
Visibility: 6 or more miles (10+ km)
Ceiling: ceiling and visibility are OK
Clouds: unknown
Weather: no significant weather observed at this time

METAR text: OEDR 191700Z 05008KT CAVOK 35/16 Q1002 NOSIG
Conditions at: OEDR (DHAHRAN INTL (MI, SA) observed 1700 UTC 19 August 2019
Temperature: 35.0°C (95°F)
Dewpoint: 16.0°C (61°F) [RH = 32%]
Pressure (altimeter): 29.59 inches Hg (1002.0 mb)
Winds: from the NE (50 degrees) at 9 MPH (8 knots; 4.1 m/s)
Visibility: 6 or more miles (10+ km)
Ceiling: ceiling and visibility are OK
Clouds: unknown
Weather: no significant weather observed at this time

METAR text: OEDR 191600Z 05008KT CAVOK 36/17 Q1002 NOSIG
Conditions at: OEDR (DHAHRAN INTL (MI, SA) observed 1600 UTC 19 August 2019
Temperature: 36.0°C (97°F)
Dewpoint: 17.0°C (63°F) [RH = 33%]
Pressure (altimeter): 29.59 inches Hg (1002.0 mb)
Winds: from the NE (50 degrees) at 9 MPH (8 knots; 4.1 m/s)
Visibility: 6 or more miles (10+ km)
Ceiling: ceiling and visibility are OK
Clouds: unknown
Weather: no significant weather observed at this time

METAR text: OEDR 191500Z 07009KT CAVOK 37/17 Q1001 NOSIG
Conditions at: OEDR (DHAHRAN INTL (MI, SA) observed 1500 UTC 19 August 2019
Temperature: 37.0°C (99°F)
Dewpoint: 17.0°C (63°F) [RH = 31%]
Pressure (altimeter): 29.56 inches Hg (1001.0 mb)
Winds: from the ENE (70 degrees) at 10 MPH (9 knots; 4.6 m/s)
Visibility: 6 or more miles (10+ km)
Ceiling: ceiling and visibility are OK
Clouds: unknown
Weather: no significant weather observed at this time

METAR text: OEDR 191400Z 05010KT CAVOK 38/16 Q1001 NOSIG
Conditions at: OEDR (DHAHRAN INTL (MI, SA) observed 1400 UTC 19 August 2019
Temperature: 38.0°C (100°F)
Dewpoint: 16.0°C (61°F) [RH = 27%]
Pressure (altimeter): 29.56 inches Hg (1001.0 mb)
Winds: from the NE (50 degrees) at 12 MPH (10 knots; 5.1 m/s)
Visibility: 6 or more miles (10+ km)
Ceiling: ceiling and visibility are OK
Clouds: unknown
Weather: no significant weather observed at this time

METAR text: OEDR 191300Z 06010KT CAVOK 39/17 Q1001 NOSIG
Conditions at: OEDR (DHAHRAN INTL (MI, SA) observed 1300 UTC 19 August 2019
Temperature: 39.0°C (102°F)
Dewpoint: 17.0°C (63°F) [RH = 28%]
Pressure (altimeter): 29.56 inches Hg (1001.0 mb)
Winds: from the ENE (60 degrees) at 12 MPH (10 knots; 5.1 m/s)
Visibility: 6 or more miles (10+ km)
Ceiling: ceiling and visibility are OK
Clouds: unknown
Weather: no significant weather observed at this time

METAR text: OEDR 191200Z 06010KT CAVOK 41/10 Q1001 NOSIG
Conditions at: OEDR (DHAHRAN INTL (MI, SA) observed 1200 UTC 19 August 2019
Temperature: 41.0°C (106°F)
Dewpoint: 10.0°C (50°F) [RH = 16%]
Pressure (altimeter): 29.56 inches Hg (1001.0 mb)
Winds: from the ENE (60 degrees) at 12 MPH (10 knots; 5.1 m/s)
Visibility: 6 or more miles (10+ km)
Ceiling: ceiling and visibility are OK
Clouds: unknown
Weather: no significant weather observed at this time

METAR text: OEDR 191100Z 05009KT CAVOK 40/10 Q1001 NOSIG
Conditions at: OEDR (DHAHRAN INTL (MI, SA) observed 1100 UTC 19 August 2019
Temperature: 40.0°C (104°F)
Dewpoint: 10.0°C (50°F) [RH = 17%]
Pressure (altimeter): 29.56 inches Hg (1001.0 mb)
Winds: from the NE (50 degrees) at 10 MPH (9 knots; 4.6 m/s)
Visibility: 6 or more miles (10+ km)
Ceiling: ceiling and visibility are OK
Clouds: unknown
Weather: no significant weather observed at this time

METAR text: OEDR 191000Z 05012KT CAVOK 41/07 Q1002 NOSIG
Conditions at: OEDR (DHAHRAN INTL (MI, SA) observed 1000 UTC 19 August 2019
Temperature: 41.0°C (106°F)
Dewpoint: 7.0°C (45°F) [RH = 13%]
Pressure (altimeter): 29.59 inches Hg (1002.0 mb)
Winds: from the NE (50 degrees) at 14 MPH (12 knots; 6.2 m/s)
Visibility: 6 or more miles (10+ km)
Ceiling: ceiling and visibility are OK
Clouds: unknown
Weather: no significant weather observed at this time

METAR text: OEDR 190900Z 07010KT CAVOK 41/08 Q1002 NOSIG
Conditions at: OEDR (DHAHRAN INTL (MI, SA) observed 0900 UTC 19 August 2019
Temperature: 41.0°C (106°F)
Dewpoint: 8.0°C (46°F) [RH = 14%]
Pressure (altimeter): 29.59 inches Hg (1002.0 mb)
Winds: from the ENE (70 degrees) at 12 MPH (10 knots; 5.1 m/s)
Visibility: 6 or more miles (10+ km)
Ceiling: ceiling and visibility are OK
Clouds: unknown
Weather: no significant weather observed at this time

Forecast for: OEDR (DHAHRAN INTL (MI, SA)
Text: TAF OEDR 201430Z 2018/2124 VRB05KT 8000 NSC
Forecast period: 1800 UTC 20 August 2019 to 0900 UTC 21 August 2019
Forecast type: FROM: standard forecast or significant change
Winds: variable direction winds at 6 MPH (5 knots; 2.6 m/s)
Visibility: 5 miles (8 km)
Ceiling: unknown
Clouds: missing
Weather: no significant weather forecast for this period
Text: BECMG 2109/2111 08012KT
Forecast period: 0900 UTC 21 August 2019 to 0000 UTC 22 August 2019
Forecast type: BECOMING: Conditions expected to become as follows by 1100 UTC 21 August 2019
Winds: from the E (80 degrees) at 14 MPH (12 knots; 6.2 m/s)
Visibility: 5 miles (8 km)
Ceiling: unknown
Clouds: missing
Weather: no significant weather forecast for this period
Text: TEMPO 2118/2124 5000 HZ
Forecast period: 1800 UTC 21 August 2019 to 0000 UTC 22 August 2019
Forecast type: TEMPORARY: The following changes expected for less than half the time period
Visibility: 3 miles (5 km)
Ceiling: unknown
Clouds: missing
Weather: HZ  (haze)